• Join FlightAware (Why Join?)
  • Login
  • US Flag 
01:57AM EDT


 

Airport Tracker/Info


-or-


 

Live Flight TrackerFlight Track Log ✈ JBU1475 ✈ 30-Jun-2013 ✈ KBOS - KOAK

Flight Track Log - Related Links

Times and Time Zones

All times are in EDT time to prevent confusion due to time zone crossing. See the JBU1475 flight status page for this flight to view local times or setup timezone preferences in your user account.

Time Position Orientation Groundspeed Altitude Reporting Facility
EDT Latitude Longitude Course Direction KTS MPH feet Rate Location/Type
08:26PM 42.3500 -71.0167 289° West 161 185 700  Level KA90
08:27PM 42.3333 -71.0000 144° Southeast 174 200 1,600 1,440 Climbing KA90
08:28PM 42.3167 -70.8833 101° East 292 336 3,500 2,160 Climbing KA90
08:29PM 42.5894 -70.8564 308° West  Level FlightAware Approximate
08:29PM 42.3333 -70.7667 79° East 293 337 7,000  Level KA90
08:30PM 42.6556 -70.9867 300° West  Level FlightAware Approximate
08:30PM 42.4000 -70.7333 20° North 318 366 8,700  Level KA90
08:31PM 42.7132 -71.1250 300° West  Level FlightAware Approximate
08:31PM 42.5128 -70.7472 355° North 326 375 11,000  Level Boston Center
08:32PM 42.7663 -71.2651 289° West  Level FlightAware Approximate
08:32PM 42.5769 -70.8528 310° West 318 366 12,400  Level Boston Center
08:33PM 42.6411 -70.9836 304° West 367 422 14,400 1,800 Climbing Boston Center
08:34PM 42.6925 -71.0928 303° West 386 444 16,100 1,740 Climbing Boston Center
08:35PM 42.7586 -71.2297 303° West 397 457 17,900 1,680 Climbing Boston Center
08:36PM 42.7911 -71.3564 289° West 392 451 19,500 1,440 Climbing Boston Center
08:37PM 42.8092 -71.5006 280° West 387 445 20,800 1,200 Climbing Boston Center
08:38PM 42.8186 -71.6617 275° West 394 453 21,900 1,020 Climbing Boston Center
08:39PM 42.8322 -71.8144 277° West 400 460 22,900 900 Climbing Boston Center
08:40PM 42.8475 -71.9614 278° West 400 460 23,800 840 Climbing Boston Center
08:41PM 42.8606 -72.1172 277° West 412 474 24,600 720 Climbing Boston Center
08:42PM 42.8733 -72.2417 278° West 412 474 25,300 840 Climbing Boston Center
08:43PM 42.8944 -72.4117 280° West 417 480 26,300 960 Climbing Boston Center
08:44PM 42.9067 -72.5678 276° West 417 480 27,300 1,020 Climbing Boston Center
08:45PM 42.9147 -72.7178 274° West 417 480 28,400 1,080 Climbing Boston Center
08:46PM 42.9269 -72.8683 276° West 411 473 29,500 1,200 Climbing Boston Center
08:47PM 42.9450 -73.0386 278° West 404 465 30,800 1,200 Climbing Boston Center
08:48PM 42.9564 -73.1833 276° West 404 465 31,900 600 Climbing Boston Center
08:49PM 42.9681 -73.3311 276° West 398 458 32,000  Climbing Boston Center
08:50PM 42.9731 -73.4617 273° West 398 458 32,000  Level Boston Center
08:51PM 42.9861 -73.6150 277° West 398 458 32,000 -60 Level Boston Center
08:52PM 42.9992 -73.7658 277° West 408 470 31,900  Descending Boston Center
08:53PM 43.0097 -73.9136 276° West 408 470 32,000  Climbing Boston Center
08:54PM 43.0225 -74.0617 277° West 408 470 32,000  Level Boston Center
08:55PM 43.0328 -74.2125 275° West 403 464 32,000 -60 Level Boston Center
08:56PM 43.0450 -74.3578 277° West 403 464 31,900  Descending Boston Center
08:57PM 43.0528 -74.5058 274° West 403 464 32,000  Climbing Boston Center
08:58PM 43.0644 -74.6539 276° West 398 458 32,000  Level Boston Center
08:59PM 43.0761 -74.8022 276° West 398 458 32,000  Level Boston Center
09:00PM 43.0897 -74.9506 277° West 398 458 32,000  Level Boston Center
09:02PM 43.1119 -75.2503 276° West 398 458 32,000  Level Boston Center
09:03PM 43.1247 -75.3989 277° West 398 458 32,000  Level Boston Center
09:04PM 43.1353 -75.5500 276° West 398 458 32,000  Level Boston Center
09:05PM 43.1458 -75.6986 276° West 398 458 32,000  Level Boston Center
09:06PM 43.1578 -75.8589 276° West 398 458 32,000  Level Boston Center
09:07PM 43.1678 -76.0103 275° West 398 458 32,000 480 Level Boston Center
09:08PM 43.1797 -76.1589 276° West 398 458 33,000 600 Climbing Boston Center
09:11PM 43.1833 -76.4333 271° West 390 449 34,000 300 Climbing Toronto Center
09:12PM 43.1833 -76.5833 270° West 390 449 34,000  Level Toronto Center
09:13PM 43.2167 -76.7333 287° West 390 449 34,000  Level Toronto Center
09:14PM 43.2167 -76.8667 270° West 390 449 34,000  Level Toronto Center
09:15PM 43.2167 -77.0333 270° West 390 449 34,000  Level Toronto Center
09:16PM 43.2333 -77.1667 280° West 380 437 34,000  Level Toronto Center
09:17PM 43.2333 -77.3167 270° West 390 449 34,000  Level Toronto Center
09:18PM 43.2500 -77.4667 279° West 390 449 34,000  Level Toronto Center
09:19PM 43.2667 -77.6167 279° West 380 437 34,000  Level Toronto Center
09:20PM 43.2667 -77.7500 270° West 390 449 34,000  Level Toronto Center
09:21PM 43.2850 -77.9622 277° West 384 442 34,000  Level Cleveland Center
09:22PM 43.2944 -78.1103 275° West 384 442 34,000  Level Cleveland Center
09:23PM 43.3039 -78.2553 275° West 384 442 34,000  Level Cleveland Center
09:24PM 43.3108 -78.4006 274° West 384 442 34,000  Level Cleveland Center
09:25PM 43.3156 -78.5461 273° West 384 442 34,000  Level Cleveland Center
09:26PM 43.3242 -78.6914 275° West 384 442 34,000  Level Cleveland Center
09:27PM 43.3306 -78.8308 274° West 384 442 34,000  Level Cleveland Center
09:28PM 43.3333 -78.9167 273° West 380 437 34,000  Level Toronto Center
09:29PM 43.3333 -79.0667 270° West 380 437 34,000  Level Toronto Center
09:30PM 43.3333 -79.2167 270° West 380 437 34,000  Level Toronto Center
09:31PM 43.3333 -79.3500 270° West 380 437 34,000  Level Toronto Center
09:32PM 43.3500 -79.5000 279° West 380 437 34,000  Level Toronto Center
09:33PM 43.3500 -79.6333 270° West 380 437 34,000  Level Toronto Center
09:34PM 43.3500 -79.8000 270° West 380 437 34,000  Level Toronto Center
09:35PM 43.3667 -79.9333 280° West 380 437 34,000  Level Toronto Center
09:36PM 43.3667 -80.1000 270° West 380 437 34,000  Level Toronto Center
09:37PM 43.3667 -80.2333 270° West 380 437 34,000  Level Toronto Center
09:38PM 43.3833 -80.3667 280° West 380 437 34,000  Level Toronto Center
09:39PM 43.3833 -80.5000 270° West 380 437 34,000  Level Toronto Center
09:40PM 43.3833 -80.6667 270° West 390 449 34,000  Level Toronto Center
09:41PM 43.4000 -80.8000 280° West 380 437 34,000  Level Toronto Center
09:42PM 43.3833 -80.9667 262° West 380 437 34,000  Level Toronto Center
09:43PM 43.3833 -81.1000 270° West 380 437 34,000  Level Toronto Center
09:44PM 43.4000 -81.2667 278° West 380 437 34,000  Level Toronto Center
09:45PM 43.4000 -81.4000 270° West 380 437 34,000  Level Toronto Center
09:46PM 43.4000 -81.5333 270° West 380 437 34,000  Level Toronto Center
09:47PM 43.4167 -81.6833 279° West 380 437 34,000  Level Toronto Center
09:48PM 43.4167 -81.8333 270° West 390 449 34,000  Level Toronto Center
09:49PM 43.4000 -81.9667 260° West 390 449 34,000 120 Level Toronto Center
09:50PM 43.4167 -82.1333 278° West 390 449 34,300 600 Climbing Toronto Center
09:51PM 43.4167 -82.2667 270° West 390 449 35,200 840 Climbing Toronto Center
09:52PM 43.4167 -82.4333 270° West 380 437 36,000 360 Climbing Toronto Center
09:53PM 43.4333 -82.5667 280° West 370 426 36,000  Level Toronto Center
09:54PM 43.4167 -82.7167 261° West 370 426 36,000  Level Toronto Center
09:55PM 43.4167 -82.8500 270° West 370 426 36,000  Level Toronto Center
09:56PM 43.4333 -83.0000 279° West 380 437 36,000  Level Toronto Center
09:57PM 43.4333 -83.1500 270° West 380 437 36,000  Level Toronto Center
09:58PM 43.4167 -83.2833 260° West 380 437 36,000  Level Toronto Center
09:59PM 43.4167 -83.4500 270° West 390 449 36,000  Level Toronto Center
10:00PM 43.4333 -83.5833 280° West 390 449 36,000  Level Toronto Center
10:01PM 43.4167 -83.7500 262° West 400 460 36,000  Level Toronto Center
10:02PM 43.4167 -83.9000 270° West 410 472 36,000  Level Toronto Center
10:03PM 43.4375 -84.0794 279° West 412 474 36,000  Level Minneapolis Center
10:04PM 43.4378 -84.2397 270° West 418 481 36,000  Level Minneapolis Center
10:05PM 43.4375 -84.4025 270° West 424 488 36,000  Level Minneapolis Center
10:06PM 43.4356 -84.6003 269° West 430 495 36,000  Level Minneapolis Center
10:07PM 43.4361 -84.7658 270° West 434 499 36,000  Level Minneapolis Center
10:08PM 43.4342 -84.9319 269° West 435 501 36,000  Level Minneapolis Center
10:09PM 43.4322 -85.0997 269° West 438 504 36,000  Level Minneapolis Center
10:10PM 43.4308 -85.2681 269° West 442 509 36,000  Level Minneapolis Center
10:11PM 43.4294 -85.4364 269° West 443 510 36,000  Level Chicago Center
10:12PM 43.4264 -85.6431 269° West 452 520 36,000  Level Chicago Center
10:13PM 43.4244 -85.8128 269° West 450 518 36,000  Level Chicago Center
10:14PM 43.4208 -85.9819 268° West 449 517 36,000  Level Chicago Center
10:15PM 43.4186 -86.1539 269° West 454 522 36,000  Level Chicago Center
10:16PM 43.4142 -86.3261 268° West 458 527 36,000  Level Chicago Center
10:17PM 43.4106 -86.4964 268° West 452 520 36,000  Level Chicago Center
10:18PM 43.4064 -86.7014 268° West 452 520 36,000  Level Chicago Center
10:19PM 43.4017 -86.8744 268° West 456 525 36,000  Level Chicago Center
10:20PM 43.3972 -87.0453 268° West 451 519 36,000  Level Chicago Center
10:21PM 43.3925 -87.2183 268° West 455 524 36,000  Level Chicago Center
10:22PM 43.3875 -87.3908 268° West 446 513 36,000  Level Chicago Center
10:23PM 43.3811 -87.5628 267° West 449 517 36,000  Level Chicago Center
10:24PM 43.3758 -87.7356 268° West 453 521 36,000  Level Chicago Center
10:25PM 43.3689 -87.9064 267° West 449 517 36,000  Level Chicago Center
10:26PM 43.3628 -88.0789 267° West 451 519 36,000  Level Chicago Center
10:27PM 43.3558 -88.2528 267° West 454 522 36,000  Level Chicago Center
10:28PM 43.3472 -88.4250 266° West 450 518 36,000  Level Chicago Center
10:29PM 43.3406 -88.6042 267° West 453 521 36,000  Level Chicago Center
10:30PM 43.3342 -88.7772 267° West 449 517 36,000  Level Chicago Center
10:31PM 43.3269 -88.9494 267° West 451 519 36,000  Level Chicago Center
10:32PM 43.3169 -89.1500 266° West 448 516 36,000  Level Chicago Center
10:33PM 43.3094 -89.3208 267° West 448 516 36,000  Level Chicago Center
10:34PM 43.3025 -89.4908 267° West 447 514 36,000  Level Chicago Center
10:36PM 43.2903 -89.6644 265° West 454 522 36,000  Level Chicago Center
10:37PM 43.2822 -89.8342 266° West 447 514 36,000  Level Chicago Center
10:38PM 43.2722 -90.0067 266° West 451 519 36,000  Level Chicago Center
10:39PM 43.2644 -90.1767 266° West 448 516 36,000  Level Chicago Center
10:40PM 43.2556 -90.3444 266° West 448 516 36,000  Level Chicago Center
10:41PM 43.2450 -90.5139 265° West 451 519 36,000  Level Chicago Center
10:42PM 43.2347 -90.6825 265° West 450 518 36,000  Level Chicago Center
10:43PM 43.2233 -90.8847 266° West 450 518 36,000  Level Chicago Center
10:44PM 43.2133 -91.0528 265° West 449 517 36,000  Level Chicago Center
10:45PM 43.2028 -91.2211 265° West 451 519 36,000  Level Chicago Center
10:46PM 43.1914 -91.3886 265° West 449 517 36,000  Level Chicago Center
10:47PM 43.1814 -91.5575 265° West 452 520 36,000  Level Chicago Center
10:48PM 43.1697 -91.7244 265° West 449 517 36,000  Level Chicago Center
10:49PM 43.1553 -91.9150 264° West 445 512 36,000  Level Chicago Center
10:50PM 43.1431 -92.0892 265° West 446 513 36,000  Level Chicago Center
10:51PM 43.1306 -92.2533 264° West 440 506 36,000  Level Chicago Center
10:51PM 43.1247 -92.3536 265° West 444 511 36,000  Level Minneapolis Center
10:52PM 43.1111 -92.5203 264° West 445 512 36,000  Level Minneapolis Center
10:53PM 43.0983 -92.6872 264° West 448 516 36,000  Level Minneapolis Center
10:54PM 43.0856 -92.8508 264° West 441 507 36,000  Level Minneapolis Center
10:55PM 43.0717 -93.0158 263° West 441 507 36,000  Level Minneapolis Center
10:56PM 43.0542 -93.2158 263° West 444 511 36,000  Level Minneapolis Center
10:58PM 43.0383 -93.3819 263° West 445 512 36,000  Level Minneapolis Center
10:59PM 43.0247 -93.5497 264° West 449 517 36,000  Level Minneapolis Center
11:00PM 43.0083 -93.7197 263° West 453 521 36,000  Level Minneapolis Center
11:01PM 42.9950 -93.8886 264° West 454 522 36,000  Level Minneapolis Center
11:02PM 42.9864 -94.0572 266° West 449 517 36,000  Level Minneapolis Center
11:03PM 42.9758 -94.2244 265° West 448 516 36,000  Level Minneapolis Center
11:04PM 42.9653 -94.3906 265° West 444 511 36,000  Level Minneapolis Center
11:05PM 42.9542 -94.5575 265° West 445 512 36,000  Level Minneapolis Center
11:06PM 42.9417 -94.7414 265° West 443 510 36,000  Level Minneapolis Center
11:07PM 42.9275 -94.9439 265° West 445 512 36,000  Level Minneapolis Center
11:08PM 42.9158 -95.1122 265° West 445 512 36,000  Level Minneapolis Center
11:09PM 42.9036 -95.2808 264° West 447 514 36,000  Level Minneapolis Center
11:10PM 42.8917 -95.4472 264° West 442 509 36,000  Level Minneapolis Center
11:11PM 42.8792 -95.6122 264° West 440 506 36,000  Level Minneapolis Center
11:12PM 42.8664 -95.7806 264° West 443 510 36,000  Level Minneapolis Center
11:13PM 42.8536 -95.9481 264° West 444 511 36,000  Level Minneapolis Center
11:14PM 42.8403 -96.1147 264° West 443 510 36,000  Level Minneapolis Center
11:15PM 42.8269 -96.2794 264° West 439 505 36,000  Level Minneapolis Center
11:16PM 42.8125 -96.4417 263° West 434 499 36,000  Level Minneapolis Center
11:17PM 42.7989 -96.6078 264° West 439 505 36,000  Level Minneapolis Center
11:18PM 42.7853 -96.7742 264° West 441 507 36,000  Level Minneapolis Center
11:19PM 42.7708 -96.9381 263° West 439 505 36,000  Level Minneapolis Center
11:20PM 42.7536 -97.1378 263° West 442 509 36,000  Level Minneapolis Center
11:21PM 42.7381 -97.3025 263° West 441 507 36,000  Level Minneapolis Center
11:22PM 42.7239 -97.4692 263° West 443 510 36,000  Level Minneapolis Center
11:23PM 42.7081 -97.6333 263° West 441 507 36,000  Level Minneapolis Center
11:24PM 42.6922 -97.7958 263° West 436 502 36,000  Level Minneapolis Center
11:25PM 42.6756 -97.9603 262° West 438 504 36,000  Level Minneapolis Center
11:26PM 42.6600 -98.1231 263° West 436 502 36,000  Level Minneapolis Center
11:27PM 42.6456 -98.2808 263° West 439 505 36,000  Level Minneapolis Center
11:28PM 42.6281 -98.4431 262° West 436 502 36,000  Level Minneapolis Center
11:29PM 42.6117 -98.6067 262° West 438 504 36,000  Level Minneapolis Center
11:30PM 42.5919 -98.8058 262° West 444 511 36,000  Level Minneapolis Center
11:31PM 42.5739 -98.9711 262° West 444 511 36,000  Level Minneapolis Center
11:32PM 42.5558 -99.1364 262° West 444 511 36,000  Level Minneapolis Center
11:33PM 42.5386 -99.3017 262° West 445 512 36,000  Level Minneapolis Center
11:34PM 42.5278 -99.4014 262° West 445 512 36,000  Level Denver Center
11:35PM 42.5094 -99.5647 261° West 441 507 36,000  Level Denver Center
11:36PM 42.4914 -99.7283 262° West 439 505 36,000 240 Level Denver Center
11:37PM 42.4722 -99.8906 261° West 441 507 36,600 600 Climbing Denver Center
11:38PM 42.4547 -100.0497 262° West 438 504 37,300 660 Climbing Denver Center
11:39PM 42.4328 -100.2297 261° West 433 498 38,000 300 Climbing Denver Center
11:40PM 42.4153 -100.3839 261° West 435 501 38,000  Level Denver Center
11:41PM 42.3933 -100.5681 261° West 443 510 38,000  Level Denver Center
11:42PM 42.3747 -100.7197 261° West 434 499 38,000  Level Denver Center
11:43PM 42.3564 -100.8756 261° West 437 503 38,000  Level Denver Center
11:44PM 42.3333 -101.0556 260° West 437 503 38,000  Level Denver Center
11:45PM 42.3139 -101.2114 260° West 440 506 38,000  Level Denver Center
11:46PM 42.2911 -101.3906 260° West 438 504 38,000  Level Denver Center
11:47PM 42.2719 -101.5444 260° West 437 503 38,000  Level Denver Center
11:48PM 42.2508 -101.6983 260° West 438 504 38,000  Level Denver Center
11:49PM 42.2281 -101.8775 260° West 437 503 38,000  Level Denver Center
11:50PM 42.2075 -102.0317 260° West 438 504 38,000  Level Denver Center
11:51PM 42.1831 -102.2117 260° West 438 504 38,000  Level Denver Center
11:52PM 42.1633 -102.3569 260° West 440 506 38,000  Level Denver Center
11:53PM 42.1381 -102.5389 259° West 441 507 38,100  Climbing Denver Center
11:54PM 42.1167 -102.6928 259° West 437 503 38,000 -60 Descending Denver Center
11:55PM 42.0953 -102.8467 259° West 437 503 38,000  Level Denver Center
11:56PM 42.0692 -103.0269 259° West 440 506 38,000  Level Denver Center
11:57PM 42.0464 -103.1814 259° West 440 506 38,000  Level Denver Center
11:58PM 42.0206 -103.3614 259° West 438 504 38,000  Level Denver Center
11:59PM 41.9981 -103.5169 259° West 441 507 38,000  Level Denver Center
12:00AM 41.9661 -103.7256 258° West 444 511 38,000  Level Denver Center
12:01AM 41.9433 -103.8819 259° West 445 512 38,000  Level Denver Center
12:02AM 41.9189 -104.0375 258° West 444 511 38,000  Level Denver Center
12:04AM 41.8911 -104.2211 259° West 448 516 38,000  Level Denver Center
12:05AM 41.8669 -104.3772 258° West 446 513 38,000  Level Denver Center
12:06AM 41.8428 -104.5339 258° West 447 514 38,000  Level Denver Center
12:07AM 41.8142 -104.7156 258° West 445 512 38,000  Level Denver Center
12:08AM 41.7894 -104.8731 258° West 449 517 38,000  Level Denver Center
12:09AM 41.7639 -105.0286 258° West 447 514 38,000  Level Denver Center
12:10AM 41.7342 -105.2086 258° West 444 511 38,000  Level Denver Center
12:11AM 41.7086 -105.3619 257° West 443 510 38,000  Level Denver Center
12:12AM 41.6833 -105.5172 258° West 444 511 38,000  Level Denver Center
12:13AM 41.6531 -105.6964 257° West 443 510 38,000  Level Denver Center
12:14AM 41.6272 -105.8506 257° West 443 510 38,000  Level Denver Center
12:15AM 41.5967 -106.0308 257° West 446 513 38,000  Level Denver Center
12:16AM 41.5697 -106.1844 257° West 445 512 38,000  Level Denver Center
12:17AM 41.5333 -106.3900 257° West 446 513 38,000  Level Denver Center
12:18AM 41.5086 -106.5383 257° West 449 517 38,000  Level Denver Center
12:19AM 41.4750 -106.7206 256° West 453 521 38,000  Level Denver Center
12:20AM 41.4431 -106.9011 257° West 449 517 38,000  Level Denver Center
12:21AM 41.4108 -107.0822 257° West 450 518 38,000  Level Denver Center
12:22AM 41.3828 -107.2361 256° West 448 516 38,000  Level Denver Center
12:23AM 41.3544 -107.3906 256° West 449 517 38,000  Level Denver Center
12:24AM 41.3219 -107.5672 256° West 442 509 38,000  Level Denver Center
12:25AM 41.2936 -107.7197 256° West 444 511 38,000  Level Denver Center
12:26AM 41.2642 -107.8719 256° West 444 511 38,000  Level Denver Center
12:27AM 41.2306 -108.0497 256° West 446 513 38,000  Level Denver Center
12:29AM 41.2014 -108.2028 256° West 445 512 38,000  Level Denver Center
12:30AM 41.1614 -108.4061 255° West 444 511 38,000  Level Denver Center
12:30AM 41.1414 -108.5089 256° West 445 512 38,000  Level Salt Lake Center
12:31AM 41.1111 -108.6631 255° West 447 514 38,000  Level Salt Lake Center
12:32AM 41.0758 -108.8433 256° West 450 518 38,000  Level Salt Lake Center
12:33AM 41.0436 -108.9972 255° West 450 518 38,100  Climbing Salt Lake Center
12:34AM 41.0128 -109.1506 255° West 448 516 38,000 -60 Descending Salt Lake Center
12:35AM 40.9772 -109.3283 255° West 446 513 38,000  Level Salt Lake Center
12:36AM 40.9464 -109.4808 255° West 447 514 38,000  Level Salt Lake Center
12:37AM 40.9150 -109.6331 255° West 447 514 38,000  Level Salt Lake Center
12:38AM 40.8778 -109.8103 255° West 447 514 38,000  Level Salt Lake Center
12:39AM 40.8464 -109.9622 255° West 447 514 38,000  Level Salt Lake Center
12:40AM 40.8131 -110.1228 255° West 448 516 38,000  Level Salt Lake Center
12:41AM 40.7764 -110.2906 254° West 448 516 38,000  Level Salt Lake Center
12:42AM 40.7431 -110.4425 254° West 450 518 38,000  Level Salt Lake Center
12:43AM 40.7086 -110.6078 255° West 447 514 38,000  Level Salt Lake Center
12:44AM 40.6750 -110.7672 255° West 450 518 38,000  Level Salt Lake Center
12:46AM 40.6392 -110.9269 254° West 453 521 38,100  Climbing Salt Lake Center
12:47AM 40.6053 -111.0856 254° West 450 518 38,000 -60 Descending Salt Lake Center
12:48AM 40.5697 -111.2436 254° West 449 517 38,000  Level Salt Lake Center
12:49AM 40.5344 -111.4011 254° West 448 516 38,000  Level Salt Lake Center
12:50AM 40.4994 -111.5597 254° West 450 518 38,000  Level Salt Lake Center
12:51AM 40.4619 -111.7200 253° West 457 526 38,000  Level Salt Lake Center
12:52AM 40.4250 -111.8797 253° West 457 526 38,000  Level Salt Lake Center
12:53AM 40.3897 -112.0403 254° West 454 522 38,000  Level Salt Lake Center
12:54AM 40.3528 -112.1989 253° West 452 520 38,000  Level Salt Lake Center
12:55AM 40.3164 -112.3547 253° West 447 514 38,000  Level Salt Lake Center
12:56AM 40.2800 -112.5114 253° West 448 516 38,000  Level Salt Lake Center
12:57AM 40.2442 -112.6678 253° West 448 516 38,000  Level Salt Lake Center
12:58AM 40.2008 -112.8228 250° West 455 524 38,000  Level Salt Lake Center
12:59AM 40.1553 -112.9761 249° West 453 521 38,000  Level Salt Lake Center
01:00AM 40.1011 -113.1561 249° West 442 509 38,000  Level Salt Lake Center
01:01AM 40.0575 -113.3100 250° West 451 519 38,000  Level Salt Lake Center
01:02AM 40.0131 -113.4628 249° West 452 520 38,000  Level Salt Lake Center
01:03AM 39.9686 -113.6175 249° West 455 524 38,000  Level Salt Lake Center
01:04AM 39.9233 -113.7706 249° West 453 521 38,000  Level Salt Lake Center
01:05AM 39.8789 -113.9233 249° West 452 520 38,000  Level Salt Lake Center
01:06AM 39.8333 -114.0744 249° West 450 518 38,000  Level Salt Lake Center
01:07AM 39.7886 -114.2258 249° West 449 517 38,000  Level Salt Lake Center
01:08AM 39.7428 -114.3775 249° West 450 518 38,000  Level Salt Lake Center
01:09AM 39.6981 -114.5225 248° West 451 519 38,000  Level Salt Lake Center
01:10AM 39.6467 -114.6939 249° West 455 524 38,000  Level Salt Lake Center
01:11AM 39.6031 -114.8392 249° West 453 521 38,000  Level Salt Lake Center
01:12AM 39.5569 -114.9858 248° West 455 524 38,000  Level Salt Lake Center
01:13AM 39.5064 -115.1525 249° West 449 517 38,000  Level Salt Lake Center
01:14AM 39.4617 -115.2958 248° West 449 517 38,000  Level Salt Lake Center
01:15AM 39.4150 -115.4397 247° West 450 518 38,000  Level Salt Lake Center
01:16AM 39.3636 -115.6053 248° West 446 513 38,000  Level Salt Lake Center
01:17AM 39.3183 -115.7478 248° West 447 514 38,000  Level Salt Lake Center
01:18AM 39.2728 -115.8911 248° West 448 516 38,000  Level Salt Lake Center
01:19AM 39.2197 -116.0564 248° West 446 513 38,000  Level Salt Lake Center
01:20AM 39.1756 -116.1969 248° West 443 510 38,000  Level Salt Lake Center
01:21AM 39.1289 -116.3375 247° West 444 511 38,000  Level Salt Lake Center
01:22AM 39.0803 -116.4892 248° West 444 511 38,000  Level Salt Lake Center
01:23AM 39.0328 -116.6342 247° West 443 510 38,000  Level Salt Lake Center
01:24AM 38.9861 -116.7783 247° West 439 505 38,000  Level Salt Lake Center
01:25AM 38.9472 -116.8933 247° West 438 504 38,000  Level Oakland Center
01:26AM 38.9003 -117.0383 247° West 441 507 38,000  Level Oakland Center
01:27AM 38.8519 -117.1797 246° West 437 503 38,000  Level Oakland Center
01:28AM 38.8053 -117.3233 247° West 439 505 38,000  Level Oakland Center
01:29AM 38.7572 -117.4658 247° West 439 505 38,000  Level Oakland Center
01:30AM 38.7094 -117.6103 247° West 442 509 38,000  Level Oakland Center
01:31AM 38.6497 -117.7569 242° Southwest 437 503 38,000  Level Oakland Center
01:32AM 38.5822 -117.8731 233° Southwest 438 504 38,000  Level Oakland Center
01:33AM 38.5172 -118.0039 238° Southwest 439 505 38,000  Level Oakland Center
01:34AM 38.4467 -118.1522 239° Southwest 444 511 38,000  Level Oakland Center
01:35AM 38.3831 -118.2878 239° Southwest 443 510 38,000  Level Oakland Center
01:36AM 38.3264 -118.4292 243° Southwest 450 518 38,000  Level Oakland Center
01:37AM 38.2853 -118.5800 251° West 456 525 38,000  Level Oakland Center
01:38AM 38.2444 -118.7294 251° West 451 519 38,100  Climbing Oakland Center
01:39AM 38.2053 -118.8789 252° West 445 512 38,000 -60 Descending Oakland Center
01:40AM 38.1647 -119.0250 251° West 440 506 38,000  Level Oakland Center
01:41AM 38.1253 -119.1667 251° West 444 511 38,000  Level Oakland Center
01:42AM 38.0847 -119.3158 251° West 447 514 38,000  Level Oakland Center
01:43AM 38.0419 -119.4647 250° West 448 516 38,000  Level Oakland Center
01:44AM 38.0047 -119.6108 252° West 440 506 38,000  Level Oakland Center
01:45AM 37.9503 -119.7872 249° West 445 512 38,000 -240 Level Oakland Center
01:46AM 37.9128 -119.9319 252° West 436 502 37,600 -1,500 Descending Oakland Center
01:47AM 37.8994 -120.0844 264° West 438 504 35,000 -2,760 Descending Oakland Center
01:48AM 37.8911 -120.2417 266° West 445 512 32,100 -2,820 Descending Oakland Center
01:49AM 37.8803 -120.4017 265° West 453 521 29,400 -3,120 Descending Oakland Center
01:50AM 37.8714 -120.5658 266° West 463 533 25,900 -3,300 Descending Oakland Center
01:51AM 37.8611 -120.7353 266° West 477 549 22,700 -3,180 Descending Oakland Center
01:52AM 37.8347 -120.8939 258° West 462 532 19,500 -3,480 Descending Oakland Center
01:53AM 37.8167 -120.9833 256° West 456 525 17,300 -3,300 Descending Northern Cal TRACON
01:54AM 37.7833 -121.1333 254° West 447 514 14,400 -2,760 Descending Northern Cal TRACON
01:55AM 37.7500 -121.2667 252° West 427 491 11,800 -1,860 Descending Northern Cal TRACON
01:56AM 37.7167 -121.3833 250° West 364 419 10,700 -900 Descending Northern Cal TRACON
01:57AM 37.7000 -121.5000 260° West 311 358 10,000 -1,140 Descending Northern Cal TRACON
01:58AM 37.6667 -121.6167 250° West 298 343 8,400 -1,500 Descending Northern Cal TRACON
01:59AM 37.6500 -121.7000 256° West 292 336 7,000 -1,500 Descending Northern Cal TRACON
02:00AM 37.6333 -121.8000 258° West 276 318 5,400 -1,620 Descending Northern Cal TRACON
02:01AM 37.6333 -121.9000 270° West 275 316 3,600 -960 Descending Northern Cal TRACON
02:02AM 37.6333 -122.0000 270° West 271 312 3,500 -540 Descending Northern Cal TRACON
02:03AM 37.6167 -122.0833 256° West 243 280 2,600 -960 Descending Northern Cal TRACON
02:04AM 37.6500 -122.1333 310° West 166 191 1,700 -900 Descending Northern Cal TRACON
02:05AM 37.6667 -122.1667 302° West 142 163 900 -780 Descending Northern Cal TRACON
02:06AM 37.7000 -122.2167 310° West 130 150 200 -720 Descending Northern Cal TRACON
02:08AM 37.7167 -122.2167 270° West  Level FlightAware Approximate